Time;durP1;ratioP1;P1;durP2;ratioP2;P2;SDS_P1;SDS_P2;PMS_P1;PMS_P2;Temp;Humidity;BMP_temperature;BMP_pressure;BME280_temperature;BME280_humidity;BME280_pressure;Samples;Min_cycle;Max_cycle;Signal;HPM_P1;HPM_P2
2022/01/07 00:01:06;;;;;;;15.23;5.68;;;3.10;99.90;;;;;;5100235;28;20036;-70
2022/01/07 00:03:32;;;;;;;11.52;4.65;;;3.10;99.90;;;;;;5101470;28;20471;-70
2022/01/07 00:05:59;;;;;;;10.05;5.50;;;3.20;99.90;;;;;;5101041;28;20615;-72
2022/01/07 00:08:28;;;;;;;9.15;4.60;;;3.20;99.90;;;;;;5101119;28;20043;-70
2022/01/07 00:10:55;;;;;;;10.52;5.45;;;3.60;99.90;;;;;;5101581;28;20040;-71
2022/01/07 00:13:21;;;;;;;19.17;5.32;;;3.20;99.90;;;;;;5100762;28;20096;-70
2022/01/07 00:15:47;;;;;;;10.07;5.05;;;3.20;99.90;;;;;;5099224;28;20040;-71
2022/01/07 00:18:13;;;;;;;11.95;5.30;;;3.50;99.90;;;;;;5100222;28;20403;-70
2022/01/07 00:20:39;;;;;;;16.95;5.32;;;3.20;99.90;;;;;;5099497;28;20048;-69
2022/01/07 00:23:05;;;;;;;10.27;4.53;;;3.20;99.90;;;;;;5100743;28;20127;-70
2022/01/07 00:25:31;;;;;;;9.98;4.80;;;3.20;99.90;;;;;;5100851;28;20051;-70
2022/01/07 00:27:57;;;;;;;8.85;4.22;;;3.20;99.90;;;;;;5099973;28;20412;-71
2022/01/07 00:30:23;;;;;;;8.43;4.22;;;3.30;99.90;;;;;;5100468;28;20052;-70
2022/01/07 00:32:50;;;;;;;12.45;4.70;;;3.30;99.90;;;;;;5114232;28;20069;-70
2022/01/07 00:35:18;;;;;;;13.85;4.75;;;3.30;99.90;;;;;;5119540;28;20053;-71
2022/01/07 00:37:45;;;;;;;7.18;4.57;;;3.50;99.90;;;;;;5121644;28;20059;-70
2022/01/07 00:40:14;;;;;;;10.05;4.55;;;3.60;99.90;;;;;;5121411;28;20122;-70
2022/01/07 00:42:40;;;;;;;12.43;5.45;;;3.30;99.90;;;;;;5119538;28;20085;-70
2022/01/07 00:45:06;;;;;;;7.28;4.07;;;3.20;99.90;;;;;;5102978;28;20043;-70
2022/01/07 00:47:32;;;;;;;11.77;4.75;;;3.20;99.90;;;;;;5119034;28;20047;-71
2022/01/07 00:49:58;;;;;;;11.77;4.90;;;3.60;99.90;;;;;;5103074;28;20043;-71
2022/01/07 00:52:24;;;;;;;9.05;6.03;;;3.60;99.90;;;;;;5120714;28;20047;-71
2022/01/07 00:54:50;;;;;;;9.95;4.32;;;3.20;99.90;;;;;;5113029;28;20040;-70
2022/01/07 00:57:16;;;;;;;12.82;5.10;;;3.00;99.90;;;;;;5100503;28;20058;-71
2022/01/07 00:59:42;;;;;;;9.45;4.22;;;3.00;99.90;;;;;;5099995;28;20052;-71
2022/01/07 01:02:08;;;;;;;18.48;4.88;;;2.90;99.90;;;;;;5099049;28;20162;-70
2022/01/07 01:04:34;;;;;;;10.95;4.70;;;2.90;99.90;;;;;;5098322;28;20044;-71
2022/01/07 01:07:00;;;;;;;11.50;5.18;;;2.90;99.90;;;;;;5100047;28;20083;-71
2022/01/07 01:09:26;;;;;;;12.45;4.82;;;2.80;99.90;;;;;;5098421;28;20048;-70
2022/01/07 01:11:51;;;;;;;14.32;5.72;;;3.10;99.90;;;;;;5100389;28;20130;-70
2022/01/07 01:14:17;;;;;;;8.30;4.65;;;2.70;99.90;;;;;;5100554;28;20512;-69
2022/01/07 01:16:44;;;;;;;9.80;4.70;;;2.60;99.90;;;;;;5098928;28;20067;-70
2022/01/07 01:19:10;;;;;;;9.30;4.63;;;3.00;99.90;;;;;;5098592;28;20090;-69
2022/01/07 01:21:36;;;;;;;11.30;5.35;;;2.50;99.90;;;;;;5098335;28;20047;-69
2022/01/07 01:24:03;;;;;;;10.05;4.57;;;3.10;99.90;;;;;;5100397;28;20173;-69
2022/01/07 01:26:29;;;;;;;10.93;4.72;;;2.40;99.90;;;;;;5099042;28;20055;-69
2022/01/07 01:28:55;;;;;;;9.38;5.03;;;2.80;99.90;;;;;;5098795;28;20040;-68
2022/01/07 01:31:21;;;;;;;11.13;5.10;;;2.30;99.90;;;;;;5099653;28;20108;-69
2022/01/07 01:33:48;;;;;;;10.90;5.45;;;2.30;99.90;;;;;;5118573;28;20051;-70
2022/01/07 01:36:14;;;;;;;14.35;5.57;;;2.50;99.90;;;;;;5118672;28;20040;-68
2022/01/07 01:38:41;;;;;;;10.27;5.22;;;2.20;99.90;;;;;;5119103;28;20126;-69
2022/01/07 01:41:07;;;;;;;11.43;4.85;;;2.20;99.90;;;;;;5120396;28;20415;-68
2022/01/07 01:43:33;;;;;;;14.75;5.55;;;2.50;99.90;;;;;;5119554;28;20146;-68
2022/01/07 01:45:59;;;;;;;14.45;5.05;;;2.10;99.90;;;;;;5118865;28;20071;-69
2022/01/07 01:48:25;;;;;;;15.90;6.43;;;2.10;99.90;;;;;;5117577;28;20039;-69
2022/01/07 01:50:51;;;;;;;15.15;6.38;;;2.00;99.90;;;;;;5119994;28;20045;-68
2022/01/07 01:53:18;;;;;;;12.77;5.50;;;2.00;99.90;;;;;;5119930;28;20040;-69
2022/01/07 01:55:44;;;;;;;11.38;5.47;;;2.10;99.90;;;;;;5105022;28;20044;-69
2022/01/07 01:58:11;;;;;;;10.43;5.40;;;2.20;99.90;;;;;;5098609;28;20052;-69
2022/01/07 02:00:38;;;;;;;13.57;5.78;;;2.60;99.90;;;;;;5098595;28;20066;-69
2022/01/07 02:03:05;;;;;;;13.57;6.22;;;2.00;99.90;;;;;;5099558;28;20084;-69
2022/01/07 02:05:31;;;;;;;12.65;5.93;;;2.30;99.90;;;;;;5097923;28;20048;-68
2022/01/07 02:07:59;;;;;;;16.02;6.63;;;2.00;99.90;;;;;;5097469;28;20162;-68
2022/01/07 02:10:26;;;;;;;13.27;5.55;;;2.00;99.90;;;;;;5097823;28;20126;-69
2022/01/07 02:12:52;;;;;;;12.05;5.55;;;2.30;99.90;;;;;;5097204;28;20044;-69
2022/01/07 02:15:18;;;;;;;16.75;6.40;;;2.00;99.90;;;;;;5099121;28;20093;-70
2022/01/07 02:17:49;;;;;;;11.20;5.30;;;2.00;99.90;;;;;;5097596;28;20074;-69
2022/01/07 02:20:18;;;;;;;19.17;7.90;;;2.00;99.90;;;;;;5097970;28;20055;-69
2022/01/07 02:22:45;;;;;;;11.65;5.47;;;2.00;99.90;;;;;;5098789;28;20103;-69
2022/01/07 02:25:12;;;;;;;19.00;7.55;;;2.00;99.90;;;;;;5098982;28;20036;-69
2022/01/07 02:27:39;;;;;;;14.25;6.43;;;2.00;99.90;;;;;;5097587;28;20099;-69
2022/01/07 02:30:08;;;;;;;17.52;6.20;;;2.00;99.90;;;;;;5097890;28;20036;-70
2022/01/07 02:32:33;;;;;;;23.75;8.02;;;1.90;99.90;;;;;;5110834;28;20051;-70
2022/01/07 02:34:59;;;;;;;13.85;6.95;;;1.90;99.90;;;;;;5100262;28;20047;-70
2022/01/07 02:37:25;;;;;;;12.85;7.05;;;2.60;99.90;;;;;;5118719;28;20047;-70
2022/01/07 02:39:51;;;;;;;13.55;7.40;;;1.90;99.90;;;;;;5118955;28;20057;-68
2022/01/07 02:42:17;;;;;;;17.33;8.60;;;1.90;99.90;;;;;;5117721;28;20053;-69
2022/01/07 02:44:43;;;;;;;12.05;7.07;;;2.70;99.90;;;;;;5117888;28;20601;-70
2022/01/07 02:47:09;;;;;;;14.10;7.70;;;2.40;99.90;;;;;;5117215;28;20487;-68
2022/01/07 02:49:34;;;;;;;11.88;7.25;;;2.00;99.90;;;;;;5119117;28;20039;-68
2022/01/07 02:52:00;;;;;;;18.30;8.52;;;2.00;99.90;;;;;;5116579;28;20051;-69
2022/01/07 02:54:26;;;;;;;17.17;7.80;;;2.90;99.90;;;;;;5114253;28;20039;-69
2022/01/07 02:56:52;;;;;;;18.92;8.10;;;1.90;99.90;;;;;;5098455;28;20066;-70
2022/01/07 02:59:18;;;;;;;14.30;8.20;;;1.90;99.90;;;;;;5097208;28;20052;-68
2022/01/07 03:01:44;;;;;;;15.02;8.65;;;1.90;99.90;;;;;;5098702;28;20047;-69
2022/01/07 03:04:10;;;;;;;15.25;8.18;;;1.90;99.90;;;;;;5096656;28;20101;-68
2022/01/07 03:06:36;;;;;;;15.75;8.07;;;2.00;99.90;;;;;;5097397;28;20052;-69
2022/01/07 03:09:05;;;;;;;14.50;7.28;;;1.90;99.90;;;;;;5097897;28;20081;-69
2022/01/07 03:11:31;;;;;;;17.05;8.88;;;1.80;99.90;;;;;;5097474;28;20047;-68
2022/01/07 03:13:56;;;;;;;14.95;8.25;;;1.80;99.90;;;;;;5098435;28;20119;-69
2022/01/07 03:16:23;;;;;;;15.45;9.35;;;1.90;99.90;;;;;;5098652;28;20568;-68
2022/01/07 03:18:48;;;;;;;15.90;8.48;;;1.80;99.90;;;;;;5096508;28;20048;-69
2022/01/07 03:21:14;;;;;;;15.32;9.25;;;1.80;99.90;;;;;;5098246;28;20122;-69
2022/01/07 03:23:41;;;;;;;19.35;8.63;;;1.80;99.90;;;;;;5097031;28;20411;-69
2022/01/07 03:26:08;;;;;;;14.45;8.23;;;1.80;99.90;;;;;;5096441;28;20048;-69
2022/01/07 03:28:34;;;;;;;17.45;8.80;;;1.80;99.90;;;;;;5097306;28;20571;-69
2022/01/07 03:31:00;;;;;;;16.67;9.15;;;1.80;99.90;;;;;;5096231;28;20194;-68
2022/01/07 03:33:26;;;;;;;18.13;9.75;;;1.80;99.90;;;;;;5115750;28;20194;-68
2022/01/07 03:35:52;;;;;;;16.13;8.50;;;2.00;99.90;;;;;;5118679;28;20415;-69
2022/01/07 03:38:18;;;;;;;15.35;9.60;;;2.30;99.90;;;;;;5116848;28;20052;-69
2022/01/07 03:40:43;;;;;;;14.80;8.02;;;1.80;99.90;;;;;;5118758;28;20043;-68
2022/01/07 03:43:10;;;;;;;17.58;8.32;;;1.80;99.90;;;;;;5117905;28;20072;-69
2022/01/07 03:45:35;;;;;;;15.88;7.72;;;2.30;99.90;;;;;;5117479;28;20047;-68
2022/01/07 03:48:01;;;;;;;15.38;9.88;;;1.80;99.90;;;;;;5117907;28;20065;-70
2022/01/07 03:50:28;;;;;;;16.33;7.82;;;1.80;99.90;;;;;;5119908;28;20031;-69
2022/01/07 03:52:56;;;;;;;14.07;7.82;;;2.30;99.90;;;;;;5122401;28;20047;-69
2022/01/07 03:55:24;;;;;;;14.90;9.02;;;1.80;99.90;;;;;;5109568;28;20040;-70
2022/01/07 03:57:50;;;;;;;13.48;8.35;;;1.80;99.90;;;;;;5101854;28;20047;-69
2022/01/07 04:00:19;;;;;;;13.32;7.47;;;2.10;99.90;;;;;;5101013;28;20067;-68
2022/01/07 04:02:46;;;;;;;16.33;8.43;;;1.80;99.90;;;;;;5101909;28;20086;-69
2022/01/07 04:05:14;;;;;;;14.95;8.98;;;2.80;99.90;;;;;;5082779;28;20050;-69
2022/01/07 04:07:40;;;;;;;13.07;8.70;;;1.90;99.90;;;;;;5101220;28;20088;-69
2022/01/07 04:10:06;;;;;;;15.55;8.80;;;1.40;99.90;;;;;;5099607;28;20040;-68
2022/01/07 04:12:32;;;;;;;12.82;8.90;;;1.90;99.90;;;;;;5100773;28;20467;-69
2022/01/07 04:15:09;;;;;;;14.23;9.05;;;2.00;99.90;;;;;;5083232;28;20044;-69
2022/01/07 04:17:41;;;;;;;16.35;9.00;;;2.70;99.90;;;;;;5098656;28;20581;-69
2022/01/07 04:20:09;;;;;;;13.48;8.75;;;2.10;99.90;;;;;;5101741;28;20039;-68
2022/01/07 04:22:35;;;;;;;15.35;8.63;;;2.10;99.90;;;;;;5099808;28;20074;-69
2022/01/07 04:25:03;;;;;;;12.68;7.55;;;2.10;99.90;;;;;;5099667;28;20181;-69
2022/01/07 04:27:29;;;;;;;13.13;7.68;;;2.10;99.90;;;;;;5099403;28;20463;-69
2022/01/07 04:29:55;;;;;;;15.73;8.13;;;2.10;99.90;;;;;;5100790;28;20047;-69
2022/01/07 04:32:20;;;;;;;14.63;8.23;;;2.30;99.90;;;;;;5109028;28;20082;-69
2022/01/07 04:34:46;;;;;;;14.65;9.45;;;2.60;99.90;;;;;;5120122;28;20652;-69
2022/01/07 04:37:12;;;;;;;14.88;7.93;;;2.20;99.90;;;;;;5120807;28;20093;-70
2022/01/07 04:39:38;;;;;;;12.23;6.75;;;2.20;99.90;;;;;;5120314;28;20047;-69
2022/01/07 04:42:03;;;;;;;12.55;7.88;;;2.50;99.90;;;;;;5118797;28;20046;-69
2022/01/07 04:44:29;;;;;;;14.35;8.85;;;2.20;99.90;;;;;;5119246;28;20048;-70
2022/01/07 04:46:55;;;;;;;12.75;8.30;;;2.20;99.90;;;;;;5101952;28;20107;-69
2022/01/07 04:49:20;;;;;;;14.23;8.60;;;2.50;99.90;;;;;;5120389;28;20055;-69
2022/01/07 04:51:46;;;;;;;15.00;7.47;;;2.40;99.90;;;;;;5119341;28;20048;-69
2022/01/07 04:54:12;;;;;;;13.18;8.82;;;2.90;99.90;;;;;;5118828;28;20054;-69
2022/01/07 04:56:38;;;;;;;12.40;7.30;;;2.40;99.90;;;;;;5100195;28;20488;-68
2022/01/07 04:59:03;;;;;;;12.73;6.93;;;2.10;99.90;;;;;;5099278;28;20072;-68
2022/01/07 05:01:29;;;;;;;13.60;7.63;;;2.10;99.90;;;;;;5098052;28;20043;-69
2022/01/07 05:03:55;;;;;;;13.98;8.55;;;2.10;99.90;;;;;;5099906;28;20052;-69
2022/01/07 05:06:44;;;;;;;12.90;7.88;;;2.10;99.90;;;;;;5098993;28;20527;-68
2022/01/07 05:09:09;;;;;;;12.20;6.85;;;2.10;99.90;;;;;;5099125;28;20078;-69
2022/01/07 05:11:34;;;;;;;18.02;8.02;;;2.10;99.90;;;;;;5100619;28;20052;-69
2022/01/07 05:14:00;;;;;;;16.13;8.60;;;2.20;99.90;;;;;;5099938;28;20047;-69
2022/01/07 05:16:28;;;;;;;15.35;8.73;;;2.20;99.90;;;;;;5098970;28;20040;-69
2022/01/07 05:18:54;;;;;;;13.98;8.43;;;2.20;99.90;;;;;;5098292;28;20048;-69
2022/01/07 05:21:20;;;;;;;13.20;7.60;;;2.20;99.90;;;;;;5099818;28;20044;-69
2022/01/07 05:23:46;;;;;;;14.50;8.32;;;2.20;99.90;;;;;;5099982;28;20563;-69
2022/01/07 05:26:12;;;;;;;11.93;6.93;;;2.60;99.90;;;;;;5080778;28;20100;-69
2022/01/07 05:28:38;;;;;;;15.27;8.30;;;2.80;99.90;;;;;;5100237;28;20055;-68
2022/01/07 05:31:04;;;;;;;12.38;6.93;;;2.70;99.90;;;;;;5099728;28;20040;-69
2022/01/07 05:33:30;;;;;;;12.48;6.65;;;2.60;99.90;;;;;;5119445;28;20077;-69
2022/01/07 05:35:56;;;;;;;11.50;8.05;;;2.20;99.90;;;;;;5120346;27;20040;-68
2022/01/07 05:38:21;;;;;;;11.50;7.10;;;2.20;99.90;;;;;;5119744;28;20042;-69
2022/01/07 05:40:47;;;;;;;10.70;6.57;;;2.20;99.90;;;;;;5119073;28;20066;-69
2022/01/07 05:43:13;;;;;;;12.63;7.63;;;2.20;99.90;;;;;;5117832;28;20052;-69
2022/01/07 05:45:40;;;;;;;10.30;6.32;;;2.70;99.90;;;;;;5120520;28;20151;-69
2022/01/07 05:48:06;;;;;;;12.23;7.03;;;2.40;99.90;;;;;;5119233;28;20085;-68
2022/01/07 05:50:32;;;;;;;11.68;6.68;;;2.20;99.90;;;;;;5120114;28;20039;-69
2022/01/07 05:52:57;;;;;;;11.10;6.68;;;2.20;99.90;;;;;;5119654;28;20050;-69
2022/01/07 05:55:23;;;;;;;11.50;7.07;;;2.20;99.90;;;;;;5108135;28;20437;-70
2022/01/07 05:57:49;;;;;;;13.45;6.75;;;2.20;99.90;;;;;;5099513;28;20043;-70
2022/01/07 06:00:15;;;;;;;10.75;6.82;;;2.20;99.90;;;;;;5098916;28;20090;-69
2022/01/07 06:02:41;;;;;;;10.73;6.93;;;2.30;99.90;;;;;;5097622;28;20404;-69
2022/01/07 06:05:07;;;;;;;10.70;6.38;;;2.90;99.90;;;;;;5097035;28;20048;-69
2022/01/07 06:07:33;;;;;;;11.60;7.00;;;2.20;99.90;;;;;;5099264;28;20347;-70
2022/01/07 06:09:59;;;;;;;9.73;6.10;;;2.40;99.90;;;;;;5099298;28;20526;-68
2022/01/07 06:12:25;;;;;;;9.80;6.53;;;2.20;99.90;;;;;;5098594;28;20052;-69
2022/01/07 06:14:51;;;;;;;10.32;6.72;;;2.20;99.90;;;;;;5098981;28;20051;-68
2022/01/07 06:17:18;;;;;;;10.27;5.97;;;2.20;99.90;;;;;;5098423;28;20068;-68
2022/01/07 06:19:43;;;;;;;7.97;5.78;;;2.30;99.90;;;;;;5097452;28;20056;-69
2022/01/07 06:22:10;;;;;;;10.50;6.85;;;3.00;99.90;;;;;;5098253;28;20631;-69
2022/01/07 06:24:36;;;;;;;10.20;5.97;;;2.30;99.90;;;;;;5097377;28;20054;-69
2022/01/07 06:27:01;;;;;;;11.50;7.15;;;2.30;99.90;;;;;;5097680;28;20044;-69
2022/01/07 06:29:27;;;;;;;10.43;6.65;;;2.30;99.90;;;;;;5099025;28;20083;-69
2022/01/07 06:31:53;;;;;;;12.48;6.22;;;2.30;99.90;;;;;;5104984;28;20071;-69
2022/01/07 06:34:20;;;;;;;13.48;7.72;;;2.30;99.90;;;;;;5118687;28;20044;-69
2022/01/07 06:36:47;;;;;;;9.10;6.03;;;2.30;99.90;;;;;;5119661;28;20043;-69
2022/01/07 06:39:14;;;;;;;9.07;6.22;;;2.40;99.90;;;;;;5118149;28;20085;-69
2022/01/07 06:41:40;;;;;;;11.73;8.02;;;2.50;99.90;;;;;;5118981;28;20044;-68
2022/01/07 06:44:05;;;;;;;12.15;6.72;;;2.40;99.90;;;;;;5118737;28;20044;-69
2022/01/07 06:46:31;;;;;;;10.77;6.93;;;2.40;99.90;;;;;;5117755;28;20051;-69
2022/01/07 06:48:57;;;;;;;10.45;6.85;;;2.40;99.90;;;;;;5117551;28;20048;-69
2022/01/07 06:51:22;;;;;;;13.77;7.32;;;2.40;99.90;;;;;;5118328;28;20073;-69
2022/01/07 06:53:48;;;;;;;10.65;6.72;;;2.40;99.90;;;;;;5117648;28;20173;-70
2022/01/07 06:56:14;;;;;;;8.98;5.53;;;2.50;99.90;;;;;;5099770;28;20051;-70
2022/01/07 06:58:39;;;;;;;9.57;6.18;;;2.50;99.90;;;;;;5097751;28;20049;-69
2022/01/07 07:01:08;;;;;;;11.95;6.82;;;2.40;99.90;;;;;;5098431;28;20066;-69
2022/01/07 07:03:39;;;;;;;11.02;7.20;;;2.40;99.90;;;;;;5098485;28;20070;-69
2022/01/07 07:06:05;;;;;;;13.10;7.13;;;2.60;99.90;;;;;;5098861;28;20032;-69
2022/01/07 07:08:31;;;;;;;10.10;7.07;;;2.50;99.90;;;;;;5096655;28;20091;-69
2022/01/07 07:10:57;;;;;;;12.80;7.43;;;2.50;99.90;;;;;;5098695;28;20052;-69
2022/01/07 07:13:22;;;;;;;10.00;6.70;;;2.50;99.90;;;;;;5096489;28;20052;-70
2022/01/07 07:15:48;;;;;;;10.60;6.40;;;2.70;99.90;;;;;;5097289;28;20090;-71
2022/01/07 07:18:14;;;;;;;8.70;6.25;;;2.50;99.90;;;;;;5096053;28;20047;-71
2022/01/07 07:20:40;;;;;;;11.15;6.25;;;2.50;99.90;;;;;;5098077;28;20047;-70
2022/01/07 07:23:06;;;;;;;10.07;7.25;;;2.60;99.90;;;;;;5098458;28;20069;-70
2022/01/07 07:25:32;;;;;;;9.65;6.75;;;2.60;99.90;;;;;;5099859;28;20401;-70
2022/01/07 07:27:57;;;;;;;9.02;6.07;;;2.60;99.90;;;;;;5102745;28;20028;-70
2022/01/07 07:30:24;;;;;;;10.05;7.25;;;2.50;99.90;;;;;;5101683;28;20048;-69
2022/01/07 07:32:53;;;;;;;11.23;7.05;;;2.90;99.90;;;;;;5116690;28;20066;-70
2022/01/07 07:37:45;;;;;;;11.57;8.07;;;2.60;99.90;;;;;;5120713;28;20058;-70
2022/01/07 07:40:11;;;;;;;11.57;7.45;;;2.60;99.90;;;;;;5121040;28;20475;-69
2022/01/07 07:42:38;;;;;;;13.93;7.68;;;2.60;99.90;;;;;;5120596;28;20048;-71
2022/01/07 07:45:05;;;;;;;12.68;8.48;;;2.60;99.90;;;;;;5121347;28;20043;-70
2022/01/07 07:47:33;;;;;;;12.00;7.32;;;2.60;99.90;;;;;;5122014;28;20039;-70
2022/01/07 07:49:59;;;;;;;15.25;8.35;;;3.20;99.90;;;;;;5120779;28;20081;-70
2022/01/07 07:52:25;;;;;;;12.30;7.68;;;2.70;99.90;;;;;;5103731;28;20040;-70
2022/01/07 07:54:51;;;;;;;14.30;8.82;;;2.70;99.90;;;;;;5080183;28;20052;-70
2022/01/07 07:57:16;;;;;;;15.52;8.48;;;2.80;99.90;;;;;;5101174;28;20549;-70
2022/01/07 07:59:42;;;;;;;12.88;9.05;;;2.70;99.90;;;;;;5100972;28;20058;-70
2022/01/07 08:02:09;;;;;;;14.32;9.02;;;2.70;99.90;;;;;;5083748;28;20167;-70
2022/01/07 08:04:38;;;;;;;14.77;9.10;;;2.70;99.90;;;;;;5099190;28;20060;-70
2022/01/07 08:07:04;;;;;;;13.63;10.00;;;2.80;99.90;;;;;;5100429;28;20593;-70
2022/01/07 08:09:35;;;;;;;13.57;8.95;;;2.80;99.90;;;;;;5101354;28;20055;-70
2022/01/07 08:12:15;;;;;;;16.05;9.75;;;2.80;99.90;;;;;;5100417;28;20071;-70
2022/01/07 08:17:25;;;;;;;15.98;8.45;;;2.90;99.90;;;;;;5088508;28;20048;-70
2022/01/07 08:19:51;;;;;;;19.33;9.98;;;3.20;99.90;;;;;;5093088;28;20040;-70
2022/01/07 08:22:17;;;;;;;17.85;9.18;;;2.90;99.90;;;;;;5098979;28;20047;-70
2022/01/07 08:24:43;;;;;;;16.70;9.45;;;3.00;99.90;;;;;;5101602;28;20048;-71
2022/01/07 08:27:09;;;;;;;16.75;8.98;;;3.80;99.90;;;;;;5083005;28;20048;-69
2022/01/07 08:29:37;;;;;;;18.05;10.77;;;3.10;99.90;;;;;;5099369;28;20073;-70
2022/01/07 08:34:54;;;;;;;18.02;11.25;;;3.00;99.90;;;;;;5114470;28;20044;-71
2022/01/07 08:37:26;;;;;;;17.63;11.00;;;3.00;99.90;;;;;;5100089;28;20059;-70
2022/01/07 08:39:53;;;;;;;18.35;10.80;;;3.00;99.90;;;;;;5100297;28;20044;-70
2022/01/07 08:42:23;;;;;;;24.42;13.00;;;3.10;99.90;;;;;;5098819;28;20047;-72
2022/01/07 08:44:52;;;;;;;21.30;12.88;;;3.10;99.90;;;;;;5099261;28;20499;-73
2022/01/07 08:47:25;;;;;;;18.40;11.50;;;3.10;99.90;;;;;;5081840;28;20079;-72
2022/01/07 08:49:52;;;;;;;20.08;11.25;;;3.10;99.90;;;;;;5100264;28;20052;-71
2022/01/07 08:52:19;;;;;;;21.48;12.02;;;3.20;99.90;;;;;;5099482;28;20538;-70
2022/01/07 08:54:45;;;;;;;17.77;9.88;;;3.20;99.90;;;;;;5106072;28;20043;-69
2022/01/07 08:57:11;;;;;;;19.65;11.00;;;3.30;99.90;;;;;;5120757;28;20100;-69
2022/01/07 08:59:37;;;;;;;18.73;11.27;;;3.30;99.90;;;;;;5118808;28;20420;-70
2022/01/07 09:02:03;;;;;;;19.35;10.80;;;3.40;99.90;;;;;;5118774;28;20036;-69
2022/01/07 09:04:28;;;;;;;17.23;10.65;;;3.40;99.90;;;;;;5119933;28;20055;-70
2022/01/07 09:06:54;;;;;;;22.38;12.07;;;3.40;99.90;;;;;;5119600;28;20066;-71
2022/01/07 09:09:20;;;;;;;18.83;10.68;;;3.80;99.90;;;;;;5118259;28;20101;-70
2022/01/07 09:11:46;;;;;;;25.40;13.10;;;3.50;99.90;;;;;;5111680;28;20062;-70
2022/01/07 09:14:12;;;;;;;19.92;10.18;;;3.90;99.90;;;;;;5098972;28;20058;-69
2022/01/07 09:16:37;;;;;;;18.85;11.90;;;3.60;99.90;;;;;;5098556;28;20044;-70
2022/01/07 09:19:03;;;;;;;22.75;12.70;;;3.70;99.90;;;;;;5098662;28;20084;-70
2022/01/07 09:21:29;;;;;;;24.77;12.93;;;4.10;99.90;;;;;;5099062;28;20048;-70
2022/01/07 09:23:55;;;;;;;25.35;13.55;;;3.80;99.90;;;;;;5099702;28;20499;-70
2022/01/07 09:26:21;;;;;;;21.85;11.95;;;4.70;99.90;;;;;;5081170;28;20048;-70
2022/01/07 09:28:47;;;;;;;24.42;12.88;;;3.90;99.90;;;;;;5098239;28;20055;-70
2022/01/07 09:31:14;;;;;;;25.02;12.23;;;4.00;99.90;;;;;;5087722;28;20055;-71
2022/01/07 09:33:40;;;;;;;30.38;14.18;;;4.10;99.90;;;;;;5098529;28;20067;-70
2022/01/07 09:36:06;;;;;;;24.65;13.27;;;4.10;99.90;;;;;;5085040;28;20052;-71
2022/01/07 09:38:31;;;;;;;22.52;12.88;;;4.10;99.90;;;;;;5079345;28;20052;-69
2022/01/07 09:40:57;;;;;;;25.30;13.93;;;4.20;99.90;;;;;;5099509;28;20031;-71
2022/01/07 09:43:23;;;;;;;30.98;13.38;;;4.30;99.90;;;;;;5080104;28;20175;-69
2022/01/07 09:45:50;;;;;;;24.52;13.40;;;4.20;99.90;;;;;;5099777;28;20070;-70
2022/01/07 09:48:15;;;;;;;25.23;13.20;;;4.30;99.90;;;;;;5098514;28;20052;-70
2022/01/07 09:50:41;;;;;;;17.38;10.60;;;4.30;99.90;;;;;;5096190;28;20047;-70
2022/01/07 09:53:12;;;;;;;22.77;13.07;;;4.30;99.90;;;;;;5097599;28;20056;-70
2022/01/07 09:55:39;;;;;;;25.35;12.80;;;4.60;99.90;;;;;;5110833;28;20238;-70
2022/01/07 09:58:05;;;;;;;22.30;13.68;;;4.50;99.90;;;;;;5118850;28;20110;-72
2022/01/07 10:00:38;;;;;;;22.33;12.48;;;4.40;99.90;;;;;;5117289;28;20486;-70
2022/01/07 10:03:12;;;;;;;23.00;14.45;;;4.40;99.90;;;;;;5119213;28;20490;-70
2022/01/07 10:05:42;;;;;;;22.63;13.25;;;4.40;99.90;;;;;;5117509;28;20396;-70
2022/01/07 10:08:26;;;;;;;19.23;12.27;;;4.40;99.90;;;;;;5118681;28;20072;-70
2022/01/07 10:11:18;;;;;;;24.95;11.63;;;4.40;99.90;;;;;;5119710;28;20048;-71
2022/01/07 10:13:46;;;;;;;23.10;12.95;;;4.40;99.90;;;;;;5109560;28;20066;-70
2022/01/07 10:16:22;;;;;;;18.73;10.77;;;4.50;99.90;;;;;;5118547;28;20043;-69
2022/01/07 10:18:49;;;;;;;23.50;13.93;;;4.50;99.90;;;;;;5117491;28;20048;-71
2022/01/07 10:21:16;;;;;;;19.98;12.77;;;4.60;99.90;;;;;;5118740;28;20043;-70
2022/01/07 10:23:44;;;;;;;23.05;11.95;;;3.70;99.90;;;;;;5119395;28;20137;-70
2022/01/07 10:26:19;;;;;;;20.38;12.15;;;4.40;99.90;;;;;;5116743;28;20078;-69
2022/01/07 10:28:47;;;;;;;24.08;14.02;;;4.40;99.90;;;;;;5101423;28;20073;-71
2022/01/07 10:31:23;;;;;;;25.33;11.98;;;4.40;99.90;;;;;;5110950;28;20074;-70
2022/01/07 10:33:50;;;;;;;21.23;12.43;;;4.40;99.90;;;;;;5098478;28;20056;-70
2022/01/07 10:36:17;;;;;;;19.42;11.55;;;4.40;99.90;;;;;;5095498;28;20036;-71
2022/01/07 10:38:47;;;;;;;23.10;12.43;;;4.50;99.90;;;;;;5098390;28;20127;-70
2022/01/07 10:41:13;;;;;;;25.00;13.05;;;4.40;99.90;;;;;;5098669;28;20487;-70
2022/01/07 10:43:39;;;;;;;19.88;10.88;;;4.40;99.90;;;;;;5097486;28;20051;-70
2022/01/07 10:46:16;;;;;;;15.02;9.18;;;4.40;99.90;;;;;;5098498;28;20064;-70
2022/01/07 10:48:53;;;;;;;;;;;4.30;99.90;;;;;;5098890;28;20052;-70
2022/01/07 10:51:25;;;;;;;16.55;8.65;;;4.30;99.90;;;;;;5096850;28;19928;-70
2022/01/07 10:54:09;;;;;;;10.43;6.18;;;4.20;99.90;;;;;;5097288;28;20051;-70
2022/01/07 10:56:41;;;;;;;9.75;5.78;;;4.10;99.90;;;;;;5098529;28;20059;-70
2022/01/07 10:59:15;;;;;;;9.60;5.93;;;4.00;99.90;;;;;;5099344;28;20048;-70
2022/01/07 11:01:48;;;;;;;8.63;4.80;;;3.90;99.90;;;;;;5102023;28;20058;-70
2022/01/07 11:04:17;;;;;;;9.60;5.30;;;4.10;99.90;;;;;;5101818;28;20101;-69
2022/01/07 11:06:44;;;;;;;9.43;5.30;;;3.80;99.90;;;;;;5100466;28;20054;-69
2022/01/07 11:09:12;;;;;;;10.63;5.15;;;3.80;99.90;;;;;;5083512;28;20056;-69
2022/01/07 11:12:00;;;;;;;10.23;6.32;;;3.80;99.90;;;;;;5102365;28;20070;-69
2022/01/07 11:14:31;;;;;;;11.75;5.85;;;3.90;99.90;;;;;;5101812;28;20528;-69
2022/01/07 11:17:02;;;;;;;13.35;5.88;;;3.80;99.90;;;;;;5101786;28;20028;-71
2022/01/07 11:19:35;;;;;;;10.35;5.25;;;3.90;99.90;;;;;;5102351;28;20103;-71
2022/01/07 11:22:02;;;;;;;10.77;5.43;;;3.90;99.90;;;;;;5099631;28;20093;-71
2022/01/07 11:24:35;;;;;;;9.30;5.10;;;3.90;99.90;;;;;;5084177;28;20044;-70
2022/01/07 11:27:27;;;;;;;8.70;4.82;;;4.30;99.90;;;;;;5102386;28;20036;-70
2022/01/07 11:30:12;;;;;;;8.63;5.28;;;4.00;99.90;;;;;;5120474;28;20047;-71
2022/01/07 11:32:51;;;;;;;6.05;4.28;;;4.00;99.90;;;;;;5101249;28;20067;-70
2022/01/07 11:35:17;;;;;;;9.30;4.60;;;4.00;99.90;;;;;;5083568;28;20069;-70
2022/01/07 11:37:54;;;;;;;11.00;5.35;;;4.10;99.90;;;;;;5102038;28;20137;-70
2022/01/07 11:40:32;;;;;;;10.90;5.55;;;4.10;99.90;;;;;;5099674;28;20055;-70
2022/01/07 11:43:05;;;;;;;17.63;7.78;;;4.10;99.90;;;;;;5087562;28;20036;-70
2022/01/07 11:45:34;;;;;;;16.13;7.82;;;4.10;99.90;;;;;;5097893;28;20123;-70
2022/01/07 11:48:23;;;;;;;18.95;8.57;;;4.20;99.90;;;;;;5101533;28;20055;-70
2022/01/07 11:50:55;;;;;;;20.08;10.52;;;4.20;99.90;;;;;;5099959;28;20496;-69
2022/01/07 11:53:41;;;;;;;21.05;9.77;;;4.30;99.90;;;;;;5101833;28;20339;-70
2022/01/07 11:56:09;;;;;;;23.55;12.30;;;4.30;99.90;;;;;;5093379;28;20067;-70
2022/01/07 11:58:43;;;;;;;22.25;12.05;;;4.40;99.90;;;;;;5102122;28;20040;-70
2022/01/07 12:01:32;;;;;;;23.75;11.43;;;4.40;99.90;;;;;;5101263;28;20123;-70
2022/01/07 12:04:28;;;;;;;22.08;10.10;;;4.60;99.90;;;;;;5091528;28;20055;-69
2022/01/07 12:06:55;;;;;;;16.52;9.07;;;4.70;99.90;;;;;;5102257;28;20058;-69
2022/01/07 12:09:29;;;;;;;12.27;7.07;;;4.70;99.90;;;;;;5101004;28;20114;-69
2022/01/07 12:12:10;;;;;;;9.80;4.80;;;4.70;99.90;;;;;;5099172;28;20399;-69
2022/01/07 12:14:51;;;;;;;6.63;2.72;;;4.70;99.90;;;;;;5100935;28;20062;-69
2022/01/07 12:17:18;;;;;;;3.95;1.83;;;4.60;99.90;;;;;;5100395;28;20549;-70
2022/01/07 12:19:50;;;;;;;3.60;1.55;;;4.60;99.90;;;;;;5100948;28;20048;-70
2022/01/07 12:22:17;;;;;;;5.68;1.52;;;4.40;99.90;;;;;;5099244;28;20059;-69
2022/01/07 12:24:44;;;;;;;4.38;1.55;;;4.30;99.90;;;;;;5099378;28;20044;-69
2022/01/07 12:27:24;;;;;;;3.72;1.02;;;4.30;99.90;;;;;;5101293;28;20044;-69
2022/01/07 12:29:55;;;;;;;6.45;1.27;;;4.20;99.90;;;;;;5100068;28;20109;-70
2022/01/07 12:32:29;;;;;;;1.90;1.60;;;4.20;99.90;;;;;;5109144;28;20456;-69
2022/01/07 12:34:54;;;;;;;4.72;1.30;;;4.00;99.90;;;;;;5120629;28;20039;-69
2022/01/07 12:37:24;;;;;;;3.47;1.20;;;4.00;99.90;;;;;;5085532;28;20054;-70
2022/01/07 12:39:56;;;;;;;6.68;1.33;;;4.00;99.90;;;;;;5120603;28;20091;-70
2022/01/07 12:42:24;;;;;;;3.47;1.02;;;3.90;99.90;;;;;;5118793;28;20051;-69
2022/01/07 12:44:54;;;;;;;4.22;1.30;;;3.80;99.90;;;;;;5119141;28;20075;-69
2022/01/07 12:47:25;;;;;;;2.05;0.80;;;4.50;99.90;;;;;;5119885;28;20067;-69
2022/01/07 12:49:55;;;;;;;2.88;0.80;;;3.70;99.90;;;;;;5120676;28;20044;-70
2022/01/07 12:52:26;;;;;;;5.93;0.90;;;3.70;99.90;;;;;;5120600;28;20042;-69
2022/01/07 12:55:03;;;;;;;3.45;1.00;;;3.60;99.90;;;;;;5121025;28;20047;-69
2022/01/07 12:57:36;;;;;;;3.70;1.00;;;3.60;99.90;;;;;;5119349;28;20039;-69
2022/01/07 13:00:16;;;;;;;3.63;1.10;;;3.50;99.90;;;;;;5119638;28;20051;-70